createdAt,value
2019-01-13T00:00:43.334Z,4.64
2019-01-13T00:03:14.389Z,4.62
2019-01-13T00:05:45.656Z,4.61
2019-01-13T00:08:16.413Z,4.62
2019-01-13T00:10:47.481Z,4.63
2019-01-13T00:13:18.410Z,4.65
2019-01-13T00:15:49.455Z,4.62
2019-01-13T00:18:20.217Z,4.64
2019-01-13T00:20:51.196Z,4.64
2019-01-13T00:23:22.189Z,4.65
2019-01-13T00:25:52.942Z,4.69
2019-01-13T00:28:23.926Z,4.66
2019-01-13T00:30:54.917Z,4.65
2019-01-13T00:33:25.769Z,4.70
2019-01-13T00:35:56.837Z,4.72
2019-01-13T00:38:27.653Z,4.76
2019-01-13T00:40:58.412Z,4.78
2019-01-13T00:43:29.249Z,4.77
2019-01-13T00:46:00.074Z,4.81
2019-01-13T00:48:31.046Z,4.81
2019-01-13T00:51:02.824Z,4.79
2019-01-13T00:53:33.569Z,4.78
2019-01-13T00:56:05.120Z,4.78
2019-01-13T00:58:35.935Z,4.76
2019-01-13T01:01:06.757Z,4.82
2019-01-13T01:03:37.771Z,4.79
2019-01-13T01:06:08.586Z,4.75
2019-01-13T01:08:40.493Z,4.75
2019-01-13T01:11:11.301Z,4.67
2019-01-13T01:13:42.136Z,4.76
2019-01-13T01:16:12.961Z,4.68
2019-01-13T01:18:44.894Z,4.75
2019-01-13T01:21:15.789Z,4.69
2019-01-13T01:23:46.747Z,4.69
2019-01-13T01:26:17.823Z,4.83
2019-01-13T01:28:48.569Z,4.82
2019-01-13T01:31:19.617Z,4.88
2019-01-13T01:33:50.605Z,4.85
2019-01-13T01:36:21.539Z,4.93
2019-01-13T01:38:52.304Z,4.97
2019-01-13T01:44:04.704Z,5.01
2019-01-13T01:46:36.359Z,4.98
2019-01-13T01:49:07.429Z,5.10
2019-01-13T01:51:38.329Z,5.04
2019-01-13T01:54:10.366Z,5.10
2019-01-13T01:56:41.432Z,5.18
2019-01-13T01:59:12.198Z,5.20
2019-01-13T02:01:43.032Z,5.29
2019-01-13T02:04:14.941Z,5.24
2019-01-13T02:06:45.860Z,5.30
2019-01-13T02:09:16.938Z,5.26
2019-01-13T02:11:47.772Z,5.34
2019-01-13T02:14:19.173Z,5.41
2019-01-13T02:16:49.963Z,5.37
2019-01-13T02:19:20.953Z,5.42
2019-01-13T02:21:51.707Z,5.42
2019-01-13T02:24:22.566Z,5.47
2019-01-13T02:26:53.756Z,5.50
2019-01-13T02:29:24.903Z,5.52
2019-01-13T02:31:55.667Z,5.48
2019-01-13T02:34:26.447Z,5.35
2019-01-13T02:36:57.204Z,5.37
2019-01-13T02:39:27.981Z,5.42
2019-01-13T02:41:59.030Z,5.39
2019-01-13T02:44:30.652Z,5.45
2019-01-13T02:47:01.634Z,5.39
2019-01-13T02:49:32.722Z,5.37
2019-01-13T02:52:03.561Z,5.35
2019-01-13T02:54:34.371Z,5.36
2019-01-13T02:57:05.210Z,5.35
2019-01-13T02:59:36.052Z,5.39
2019-01-13T03:02:07.217Z,5.38
2019-01-13T03:04:38.302Z,5.33
2019-01-13T03:07:09.365Z,5.38
2019-01-13T03:09:40.212Z,5.39
2019-01-13T03:12:11.280Z,5.46
2019-01-13T03:14:43.082Z,5.43
2019-01-13T03:17:14.070Z,5.41
2019-01-13T03:19:45.157Z,5.33
2019-01-13T03:22:16.283Z,5.38
2019-01-13T03:24:47.085Z,5.30
2019-01-13T03:27:17.981Z,5.27
2019-01-13T03:29:49.631Z,5.31
2019-01-13T03:32:20.461Z,5.23
2019-01-13T03:34:51.820Z,5.20
2019-01-13T03:37:22.966Z,5.25
2019-01-13T03:39:54.046Z,5.23
2019-01-13T03:42:25.292Z,5.26
2019-01-13T03:44:56.434Z,5.30
2019-01-13T03:47:27.711Z,5.31
2019-01-13T03:49:58.576Z,5.29
2019-01-13T03:52:29.425Z,5.35
2019-01-13T03:55:00.245Z,5.39
2019-01-13T03:57:31.084Z,5.40
2019-01-13T04:00:02.661Z,5.39
2019-01-13T04:02:34.986Z,5.47
2019-01-13T04:05:06.490Z,5.47
2019-01-13T04:07:37.577Z,5.47
2019-01-13T04:10:09.211Z,5.51
2019-01-13T04:12:40.093Z,5.51
2019-01-13T04:15:42.791Z,5.54
2019-01-13T04:18:13.872Z,5.37
2019-01-13T04:20:44.805Z,5.51
2019-01-13T04:23:15.644Z,5.49
2019-01-13T04:25:46.657Z,5.52
2019-01-13T04:28:17.599Z,5.51
2019-01-13T04:30:48.677Z,5.57
2019-01-13T04:33:19.760Z,5.59
2019-01-13T04:35:51.011Z,5.63
2019-01-13T04:38:21.835Z,5.62
2019-01-13T04:40:52.692Z,5.56
2019-01-13T04:43:23.710Z,5.57
2019-01-13T04:45:54.704Z,5.64
2019-01-13T04:48:25.797Z,5.63
2019-01-13T04:50:56.640Z,5.64
2019-01-13T04:53:27.937Z,5.58
2019-01-13T04:55:59.078Z,5.64
2019-01-13T04:58:29.831Z,5.72
2019-01-13T05:01:00.598Z,5.71
2019-01-13T05:03:31.676Z,5.67
2019-01-13T05:06:02.742Z,5.63
2019-01-13T05:08:33.501Z,5.65
2019-01-13T05:11:04.554Z,5.72
2019-01-13T05:13:35.558Z,5.71
2019-01-13T05:16:06.460Z,5.71
2019-01-13T05:18:37.685Z,5.73
2019-01-13T05:21:08.677Z,5.75
2019-01-13T05:23:39.550Z,5.73
2019-01-13T05:26:10.537Z,5.68
2019-01-13T05:28:41.594Z,5.67
2019-01-13T05:31:12.452Z,5.68
2019-01-13T05:33:43.496Z,5.67
2019-01-13T05:36:14.348Z,5.68
2019-01-13T05:38:45.354Z,5.81
2019-01-13T05:41:16.434Z,5.79
2019-01-13T05:43:47.180Z,5.80
2019-01-13T05:46:18.088Z,5.76
2019-01-13T05:48:49.074Z,5.73
2019-01-13T05:51:19.933Z,5.79
2019-01-13T05:53:50.699Z,5.78
2019-01-13T05:56:21.542Z,5.85
2019-01-13T05:58:52.370Z,5.81
2019-01-13T06:01:23.647Z,5.83
2019-01-13T06:03:54.478Z,5.86
2019-01-13T06:06:25.409Z,5.89
2019-01-13T06:08:56.411Z,5.86
2019-01-13T06:11:27.253Z,5.86
2019-01-13T06:13:58.323Z,5.87
2019-01-13T06:16:29.305Z,5.85
2019-01-13T06:19:00.057Z,5.89
2019-01-13T06:21:31.134Z,5.89
2019-01-13T06:24:02.199Z,5.90
2019-01-13T06:26:33.262Z,5.91
2019-01-13T06:29:04.315Z,5.98
2019-01-13T06:31:35.265Z,5.90
2019-01-13T06:34:06.032Z,5.94
2019-01-13T06:36:36.810Z,5.93
2019-01-13T06:39:08.421Z,5.86
2019-01-13T06:41:39.273Z,5.83
2019-01-13T06:44:10.335Z,5.81
2019-01-13T06:46:41.364Z,5.80
2019-01-13T06:49:12.131Z,5.86
2019-01-13T06:51:43.161Z,5.78
2019-01-13T06:54:14.003Z,5.84
2019-01-13T06:56:44.787Z,5.85
2019-01-13T06:59:15.916Z,5.82
2019-01-13T07:01:47.196Z,5.73
2019-01-13T07:04:18.201Z,5.86
2019-01-13T07:06:49.612Z,5.76
2019-01-13T07:09:20.764Z,5.80
2019-01-13T07:11:51.626Z,5.71
2019-01-13T07:14:22.480Z,5.77
2019-01-13T07:16:53.564Z,5.83
2019-01-13T07:19:24.551Z,5.86
2019-01-13T07:21:55.334Z,5.89
2019-01-13T07:24:26.112Z,5.92
2019-01-13T07:26:57.005Z,5.85
2019-01-13T07:29:27.928Z,5.86
2019-01-13T07:31:58.719Z,5.87
2019-01-13T07:34:29.784Z,5.93
2019-01-13T07:37:00.780Z,5.94
2019-01-13T07:39:31.541Z,5.94
2019-01-13T07:42:02.624Z,5.93
2019-01-13T07:44:33.392Z,5.94
2019-01-13T07:47:04.316Z,5.92
2019-01-13T07:49:35.390Z,5.93
2019-01-13T07:52:06.263Z,5.92
2019-01-13T07:54:37.370Z,5.96
2019-01-13T07:57:08.253Z,6.02
2019-01-13T07:59:39.992Z,5.97
2019-01-13T08:02:17.703Z,5.95
2019-01-13T08:04:43.901Z,6.01
2019-01-13T08:07:14.688Z,6.02
2019-01-13T08:09:45.861Z,6.07
2019-01-13T08:12:16.730Z,6.10
2019-01-13T08:14:47.512Z,6.08
2019-01-13T08:17:18.631Z,6.10
2019-01-13T08:19:49.892Z,6.06
2019-01-13T08:22:21.083Z,6.09
2019-01-13T08:24:52.226Z,6.05
2019-01-13T08:27:23.334Z,6.07
2019-01-13T08:29:54.271Z,6.06
2019-01-13T08:32:25.268Z,6.09
2019-01-13T08:34:56.403Z,6.06
2019-01-13T08:37:27.179Z,6.03
2019-01-13T08:39:58.015Z,6.04
2019-01-13T08:42:29.093Z,6.09
2019-01-13T08:44:59.861Z,6.07
2019-01-13T08:47:30.834Z,6.08
2019-01-13T08:50:01.592Z,6.05
2019-01-13T08:52:32.404Z,6.04
2019-01-13T08:55:03.349Z,6.09
2019-01-13T08:57:34.439Z,6.00
2019-01-13T09:00:07.795Z,6.08
2019-01-13T09:02:38.644Z,6.15
2019-01-13T09:05:09.940Z,6.12
2019-01-13T09:07:40.960Z,6.10
2019-01-13T09:10:13.845Z,6.18
2019-01-13T09:12:45.028Z,6.15
2019-01-13T09:15:17.755Z,6.13
2019-01-13T09:17:49.021Z,6.11
2019-01-13T09:20:22.332Z,6.13
2019-01-13T09:22:53.601Z,6.11
2019-01-13T09:25:24.529Z,6.12
2019-01-13T09:27:55.367Z,6.08
2019-01-13T09:30:27.983Z,6.13
2019-01-13T09:32:58.909Z,6.12
2019-01-13T09:35:29.961Z,6.16
2019-01-13T09:38:01.103Z,6.15
2019-01-13T09:40:32.370Z,6.20
2019-01-13T09:43:03.798Z,6.22
2019-01-13T09:45:35.079Z,6.19
2019-01-13T09:48:06.006Z,6.20
2019-01-13T09:50:36.948Z,6.25
2019-01-13T09:53:07.851Z,6.21
2019-01-13T09:55:38.786Z,6.30
2019-01-13T09:58:09.857Z,6.26
2019-01-13T10:00:40.749Z,6.26
2019-01-13T10:03:11.622Z,6.27
2019-01-13T10:05:42.602Z,6.26
2019-01-13T10:08:13.714Z,6.28
2019-01-13T10:10:44.482Z,6.30
2019-01-13T10:13:16.763Z,6.29
2019-01-13T10:15:47.747Z,6.31
2019-01-13T10:18:18.835Z,6.31
2019-01-13T10:20:50.047Z,6.31
2019-01-13T10:23:21.071Z,6.35
2019-01-13T10:25:51.977Z,6.29
2019-01-13T10:28:22.743Z,6.35
2019-01-13T10:30:54.199Z,6.33
2019-01-13T10:33:24.966Z,6.38
2019-01-13T10:35:55.871Z,6.30
2019-01-13T10:38:26.978Z,6.39
2019-01-13T10:40:57.811Z,6.40
2019-01-13T10:43:28.999Z,6.36
2019-01-13T10:46:08.458Z,6.31
2019-01-13T10:48:40.317Z,6.29
2019-01-13T10:51:11.375Z,6.33
2019-01-13T10:53:42.218Z,6.34
2019-01-13T10:56:13.115Z,6.30
2019-01-13T10:58:43.959Z,6.27
2019-01-13T11:01:15.015Z,6.31
2019-01-13T11:03:45.855Z,6.34
2019-01-13T11:06:16.673Z,6.31
2019-01-13T11:08:49.341Z,6.31
2019-01-13T11:11:20.161Z,6.32
2019-01-13T11:13:51.158Z,6.33
2019-01-13T11:16:23.121Z,6.31
2019-01-13T11:18:55.146Z,6.31
2019-01-13T11:21:26.270Z,6.32
2019-01-13T11:23:57.259Z,6.34
2019-01-13T11:26:28.286Z,6.31
2019-01-13T11:28:59.382Z,6.35
2019-01-13T11:31:30.452Z,6.38
2019-01-13T11:34:01.209Z,6.39
2019-01-13T11:36:32.033Z,6.34
2019-01-13T11:39:03.493Z,6.37
2019-01-13T11:41:36.189Z,6.39
2019-01-13T11:44:07.275Z,6.36
2019-01-13T11:46:38.365Z,6.40
2019-01-13T11:49:09.205Z,6.42
2019-01-13T11:51:39.956Z,6.44
2019-01-13T11:54:10.826Z,6.39
2019-01-13T11:56:41.607Z,6.45
2019-01-13T11:59:12.608Z,6.49
2019-01-13T12:01:43.915Z,6.44
2019-01-13T12:04:15.062Z,6.46
2019-01-13T12:06:45.965Z,6.39
2019-01-13T12:09:17.090Z,6.40
2019-01-13T12:11:48.148Z,6.47
2019-01-13T12:14:19.178Z,6.51
2019-01-13T12:16:49.930Z,6.52
2019-01-13T12:19:20.843Z,6.54
2019-01-13T12:21:51.740Z,6.49
2019-01-13T12:24:22.754Z,6.52
2019-01-13T12:26:53.518Z,6.51
2019-01-13T12:29:24.727Z,6.59
2019-01-13T12:31:55.590Z,6.58
2019-01-13T12:34:26.509Z,6.65
2019-01-13T12:36:57.384Z,6.60
2019-01-13T12:39:28.603Z,6.63
2019-01-13T12:41:59.699Z,6.66
2019-01-13T12:44:30.542Z,6.69
2019-01-13T12:47:01.671Z,6.71
2019-01-13T12:49:32.665Z,6.67
2019-01-13T12:52:03.843Z,6.68
2019-01-13T12:54:35.155Z,6.69
2019-01-13T12:57:05.978Z,6.75
2019-01-13T12:59:36.792Z,6.82
2019-01-13T13:02:07.931Z,6.85
2019-01-13T13:04:39.011Z,6.87
2019-01-13T13:07:09.842Z,6.93
2019-01-13T13:09:40.850Z,6.90
2019-01-13T13:12:11.928Z,7.04
2019-01-13T13:14:42.774Z,7.04
2019-01-13T13:17:14.222Z,7.01
2019-01-13T13:19:45.080Z,7.02
2019-01-13T13:22:16.080Z,7.10
2019-01-13T13:24:46.845Z,7.08
2019-01-13T13:27:17.695Z,7.02
2019-01-13T13:29:48.759Z,6.99
2019-01-13T13:32:19.833Z,7.02
2019-01-13T13:34:50.763Z,7.07
2019-01-13T13:37:21.724Z,7.13
2019-01-13T13:39:52.742Z,7.17
2019-01-13T13:42:23.527Z,7.15
2019-01-13T13:44:54.603Z,7.30
2019-01-13T13:47:25.663Z,7.25
2019-01-13T13:49:56.723Z,7.25
2019-01-13T13:52:27.791Z,7.24
2019-01-13T13:54:59.054Z,7.24
2019-01-13T13:57:30.050Z,7.16
2019-01-13T14:00:00.900Z,7.11
2019-01-13T14:02:31.955Z,7.16
2019-01-13T14:05:03.313Z,7.05
2019-01-13T14:07:34.343Z,7.14
2019-01-13T14:10:07.509Z,7.13
2019-01-13T14:12:38.498Z,7.19
2019-01-13T14:15:09.534Z,7.27
2019-01-13T14:17:40.555Z,7.23
2019-01-13T14:20:13.870Z,7.27
2019-01-13T14:22:44.998Z,7.37
2019-01-13T14:25:15.840Z,7.65
2019-01-13T14:27:46.772Z,7.80
2019-01-13T14:30:19.980Z,7.87
2019-01-13T14:32:51.038Z,7.96
2019-01-13T14:35:22.174Z,8.03
2019-01-13T14:37:53.224Z,8.05
2019-01-13T14:40:24.935Z,8.06
2019-01-13T14:42:55.946Z,8.18
2019-01-13T14:45:27.543Z,8.16
2019-01-13T14:47:58.294Z,8.18
2019-01-13T14:50:31.376Z,8.25
2019-01-13T14:53:02.755Z,8.28
2019-01-13T14:55:33.960Z,8.27
2019-01-13T14:58:06.055Z,8.21
2019-01-13T15:00:37.212Z,8.31
2019-01-13T15:03:08.043Z,8.26
2019-01-13T15:05:39.184Z,8.26
2019-01-13T15:08:10.026Z,8.21
2019-01-13T15:10:41.287Z,8.13
2019-01-13T15:13:12.195Z,8.14
2019-01-13T15:15:43.079Z,8.13
2019-01-13T15:18:13.851Z,8.23
2019-01-13T15:20:44.745Z,8.24
2019-01-13T15:23:15.823Z,8.16
2019-01-13T15:25:46.815Z,8.23
2019-01-13T15:28:19.379Z,8.26
2019-01-13T15:30:55.313Z,8.24
2019-01-13T15:33:27.701Z,8.26
2019-01-13T15:35:58.671Z,8.23
2019-01-13T15:38:29.586Z,8.18
2019-01-13T15:41:00.891Z,8.28
2019-01-13T15:43:33.590Z,8.25
2019-01-13T15:46:10.669Z,8.27
2019-01-13T15:48:45.081Z,8.31
2019-01-13T15:51:17.903Z,8.29
2019-01-13T15:53:49.261Z,8.30
2019-01-13T15:56:20.153Z,8.37
2019-01-13T15:58:53.891Z,8.37
2019-01-13T16:01:28.816Z,8.34
2019-01-13T16:03:59.646Z,8.34
2019-01-13T16:06:31.411Z,8.31
2019-01-13T16:09:03.230Z,8.36
2019-01-13T16:11:34.629Z,8.42
2019-01-13T16:14:05.846Z,8.39
2019-01-13T16:16:39.518Z,8.36
2019-01-13T16:19:13.938Z,8.32
2019-01-13T16:21:46.733Z,8.31
2019-01-13T16:24:19.042Z,8.39
2019-01-13T16:26:50.244Z,8.31
2019-01-13T16:29:21.159Z,8.37
2019-01-13T16:31:51.989Z,8.37
2019-01-13T16:34:23.154Z,8.36
2019-01-13T16:36:54.058Z,8.43
2019-01-13T16:39:31.305Z,8.47
2019-01-13T16:42:02.219Z,8.48
2019-01-13T16:44:33.449Z,8.48
2019-01-13T16:47:04.461Z,8.44
2019-01-13T16:49:35.532Z,8.48
2019-01-13T16:52:08.165Z,8.51
2019-01-13T16:54:45.210Z,8.53
2019-01-13T16:57:16.278Z,8.46
2019-01-13T16:59:47.106Z,8.59
2019-01-13T17:02:18.416Z,8.58
2019-01-13T17:04:52.985Z,8.55
2019-01-13T17:07:24.039Z,8.54
2019-01-13T17:09:56.667Z,8.56
2019-01-13T17:12:30.272Z,8.55
2019-01-13T17:15:01.548Z,8.52
2019-01-13T17:17:32.998Z,8.52
2019-01-13T17:20:05.209Z,8.48
2019-01-13T17:22:35.963Z,8.57
2019-01-13T17:25:07.273Z,8.57
2019-01-13T17:27:39.189Z,8.56
2019-01-13T17:30:13.484Z,8.56
2019-01-13T17:32:44.381Z,8.70
2019-01-13T17:35:15.638Z,8.68
2019-01-13T17:37:46.922Z,8.63
2019-01-13T17:40:19.831Z,8.59
2019-01-13T17:42:51.967Z,8.62
2019-01-13T17:45:28.532Z,8.55
2019-01-13T17:47:59.383Z,8.58
2019-01-13T17:50:30.240Z,8.57
2019-01-13T17:53:01.080Z,8.67
2019-01-13T17:55:32.909Z,8.66
2019-01-13T17:58:04.015Z,8.62
2019-01-13T18:00:46.982Z,8.57
2019-01-13T18:03:21.769Z,8.64
2019-01-13T18:05:52.679Z,8.65
2019-01-13T18:08:23.748Z,8.64
2019-01-13T18:10:54.607Z,8.60
2019-01-13T18:13:25.383Z,8.59
2019-01-13T18:15:56.575Z,8.63
2019-01-13T18:18:27.636Z,8.65
2019-01-13T18:20:58.528Z,8.63
2019-01-13T18:23:29.533Z,8.66
2019-01-13T18:26:00.358Z,8.63
2019-01-13T18:28:31.602Z,8.63
2019-01-13T18:31:02.528Z,8.62
2019-01-13T18:33:34.040Z,8.65
2019-01-13T18:36:04.934Z,8.65
2019-01-13T18:38:36.027Z,8.62
2019-01-13T18:41:37.698Z,8.60
2019-01-13T18:44:40.570Z,8.59
2019-01-13T18:47:22.006Z,8.54
2019-01-13T18:49:53.122Z,8.54
2019-01-13T18:52:44.514Z,8.54
2019-01-13T18:55:15.572Z,8.64
2019-01-13T18:57:46.638Z,8.61
2019-01-13T19:00:19.373Z,8.57
2019-01-13T19:02:50.303Z,8.51
2019-01-13T19:05:22.345Z,8.52
2019-01-13T19:07:53.234Z,8.52
2019-01-13T19:10:31.064Z,8.50
2019-01-13T19:13:41.423Z,8.47
2019-01-13T19:16:16.556Z,8.52
2019-01-13T19:18:47.565Z,8.52
2019-01-13T19:21:18.383Z,8.51
2019-01-13T19:23:49.640Z,8.53
2019-01-13T19:26:20.460Z,8.55
2019-01-13T19:28:51.260Z,8.47
2019-01-13T19:31:22.342Z,8.47
2019-01-13T19:33:53.341Z,8.48
2019-01-13T19:36:24.415Z,8.48
2019-01-13T19:38:55.505Z,8.48
2019-01-13T19:41:26.400Z,8.46
2019-01-13T19:43:57.337Z,8.46
2019-01-13T19:46:28.326Z,8.42
2019-01-13T19:48:59.358Z,8.41
2019-01-13T19:51:30.288Z,8.43
2019-01-13T19:54:01.519Z,8.43
2019-01-13T19:56:32.752Z,8.37
2019-01-13T19:59:03.745Z,8.27
2019-01-13T20:01:34.655Z,8.15
2019-01-13T20:04:06.479Z,8.08
2019-01-13T20:06:37.301Z,8.03
2019-01-13T20:09:10.964Z,8.01
2019-01-13T20:11:42.095Z,8.03
2019-01-13T20:14:12.866Z,8.05
2019-01-13T20:16:46.004Z,8.07
2019-01-13T20:19:17.160Z,8.06
2019-01-13T20:21:47.914Z,8.06
2019-01-13T20:24:19.024Z,8.13
2019-01-13T20:26:50.090Z,8.12
2019-01-13T20:29:21.082Z,8.10
2019-01-13T20:31:52.129Z,8.10
2019-01-13T20:34:22.893Z,8.12
2019-01-13T20:36:53.994Z,8.32
2019-01-13T20:39:24.800Z,8.31
2019-01-13T20:41:55.556Z,8.26
2019-01-13T20:44:26.626Z,8.17
2019-01-13T20:46:57.360Z,8.13
2019-01-13T20:49:28.215Z,8.07
2019-01-13T20:51:58.962Z,7.98
2019-01-13T20:54:29.752Z,7.89
2019-01-13T20:57:00.752Z,7.80
2019-01-13T20:59:32.330Z,7.77
2019-01-13T21:02:03.407Z,7.71
2019-01-13T21:04:34.570Z,7.66
2019-01-13T21:07:05.456Z,7.71
2019-01-13T21:09:36.419Z,7.69
2019-01-13T21:12:07.160Z,7.70
2019-01-13T21:14:38.008Z,7.79
2019-01-13T21:17:09.952Z,7.72
2019-01-13T21:19:41.001Z,7.71
2019-01-13T21:22:11.825Z,7.78
2019-01-13T21:24:42.961Z,7.81
2019-01-13T21:27:13.788Z,7.77
2019-01-13T21:29:44.798Z,7.77
2019-01-13T21:32:15.866Z,7.83
2019-01-13T21:34:46.774Z,7.77
2019-01-13T21:37:17.565Z,7.85
2019-01-13T21:39:48.549Z,7.88
2019-01-13T21:42:19.908Z,7.96
2019-01-13T21:44:50.742Z,7.91
2019-01-13T21:47:21.719Z,7.86
2019-01-13T21:49:52.487Z,7.88
2019-01-13T21:52:23.307Z,7.81
2019-01-13T21:54:54.297Z,7.79
2019-01-13T21:57:25.123Z,7.75
2019-01-13T21:59:55.961Z,7.69
2019-01-13T22:02:26.930Z,7.72
2019-01-13T22:04:57.833Z,7.54
2019-01-13T22:07:28.644Z,7.45
2019-01-13T22:09:59.702Z,7.35
2019-01-13T22:12:30.609Z,7.27
2019-01-13T22:15:01.383Z,7.25
2019-01-13T22:17:32.198Z,7.30
2019-01-13T22:20:03.197Z,7.23
2019-01-13T22:22:34.326Z,7.13
2019-01-13T22:25:06.623Z,7.13
2019-01-13T22:27:37.937Z,7.09
2019-01-13T22:30:12.168Z,7.13
2019-01-13T22:32:43.091Z,7.21
2019-01-13T22:35:14.101Z,7.03
2019-01-13T22:37:45.297Z,6.99
2019-01-13T22:40:17.404Z,6.75
2019-01-13T22:42:48.270Z,6.62
2019-01-13T22:45:21.241Z,6.51
2019-01-13T22:47:52.134Z,6.41
2019-01-13T22:50:22.979Z,6.37
2019-01-13T22:52:53.951Z,6.29
2019-01-13T22:55:24.794Z,6.22
2019-01-13T22:57:55.763Z,6.20
2019-01-13T23:01:06.837Z,6.15
2019-01-13T23:03:38.523Z,6.09
2019-01-13T23:06:09.380Z,6.00
2019-01-13T23:08:40.435Z,6.00
2019-01-13T23:11:11.567Z,5.94
2019-01-13T23:13:42.624Z,5.91
2019-01-13T23:16:13.701Z,5.88
2019-01-13T23:18:44.491Z,5.81
2019-01-13T23:21:15.327Z,5.66
2019-01-13T23:23:46.106Z,5.49
2019-01-13T23:26:16.890Z,5.44
2019-01-13T23:28:48.161Z,5.40
2019-01-13T23:31:19.004Z,5.38
2019-01-13T23:33:49.988Z,5.38
2019-01-13T23:36:21.226Z,5.41
2019-01-13T23:38:52.017Z,5.44
2019-01-13T23:41:23.102Z,5.43
2019-01-13T23:43:54.010Z,5.46
2019-01-13T23:46:25.081Z,5.50
2019-01-13T23:48:58.257Z,5.49
2019-01-13T23:51:29.353Z,5.45
2019-01-13T23:54:00.309Z,5.38
2019-01-13T23:56:31.386Z,5.32
2019-01-13T23:59:02.225Z,5.17
